createdAt,value
2018-11-27T00:00:55.285Z,0.40
2018-11-27T00:01:55.288Z,0.30
2018-11-27T00:02:55.441Z,0.30
2018-11-27T00:03:55.393Z,0.30
2018-11-27T00:04:55.300Z,0.30
2018-11-27T00:05:55.302Z,0.30
2018-11-27T00:06:55.352Z,0.30
2018-11-27T00:07:55.310Z,0.30
2018-11-27T00:08:55.309Z,0.30
2018-11-27T00:09:55.314Z,0.30
2018-11-27T00:10:55.314Z,0.30
2018-11-27T00:11:55.318Z,0.30
2018-11-27T00:12:55.320Z,0.30
2018-11-27T00:13:55.323Z,0.30
2018-11-27T00:14:55.425Z,0.30
2018-11-27T00:15:55.332Z,0.30
2018-11-27T00:16:55.384Z,0.30
2018-11-27T00:17:55.337Z,0.20
2018-11-27T00:18:55.337Z,0.30
2018-11-27T00:19:55.340Z,0.20
2018-11-27T00:20:55.348Z,0.40
2018-11-27T00:21:55.347Z,0.30
2018-11-27T00:22:55.350Z,0.20
2018-11-27T00:23:55.353Z,0.30
2018-11-27T00:24:55.355Z,0.30
2018-11-27T00:25:55.358Z,0.30
2018-11-27T00:26:55.360Z,0.40
2018-11-27T00:27:55.363Z,0.40
2018-11-27T00:28:55.370Z,0.30
2018-11-27T00:29:55.370Z,0.30
2018-11-27T00:30:55.372Z,0.30
2018-11-27T00:31:55.376Z,0.30
2018-11-27T00:32:55.378Z,0.20
2018-11-27T00:33:55.381Z,0.30
2018-11-27T00:34:55.384Z,0.40
2018-11-27T00:35:55.393Z,0.30
2018-11-27T00:36:55.394Z,0.30
2018-11-27T00:37:55.395Z,0.30
2018-11-27T00:38:55.445Z,0.30
2018-11-27T00:39:55.399Z,0.30
2018-11-27T00:40:55.402Z,0.30
2018-11-27T00:41:55.404Z,0.40
2018-11-27T00:42:55.415Z,0.30
2018-11-27T00:43:55.410Z,0.30
2018-11-27T00:44:55.413Z,0.30
2018-11-27T00:45:55.417Z,0.30
2018-11-27T00:46:55.419Z,0.40
2018-11-27T00:47:55.422Z,0.30
2018-11-27T00:48:55.426Z,0.30
2018-11-27T00:49:55.429Z,0.30
2018-11-27T00:50:55.432Z,0.40
2018-11-27T00:51:55.435Z,0.30
2018-11-27T00:52:55.443Z,0.30
2018-11-27T00:53:55.441Z,0.30
2018-11-27T00:54:58.676Z,0.30
2018-11-27T00:55:55.445Z,0.30
2018-11-27T00:56:55.662Z,0.30
2018-11-27T00:57:55.451Z,0.30
2018-11-27T00:58:55.456Z,0.30
2018-11-27T00:59:55.456Z,0.30
2018-11-27T01:00:55.760Z,0.20
2018-11-27T01:01:55.513Z,0.30
2018-11-27T01:02:55.876Z,0.30
2018-11-27T01:03:55.474Z,0.30
2018-11-27T01:04:55.475Z,0.30
2018-11-27T01:05:55.475Z,0.20
2018-11-27T01:06:55.626Z,0.40
2018-11-27T01:07:55.480Z,0.30
2018-11-27T01:08:55.583Z,0.30
2018-11-27T01:09:55.535Z,0.30
2018-11-27T01:10:55.487Z,0.30
2018-11-27T01:11:55.591Z,0.40
2018-11-27T01:12:55.496Z,0.30
2018-11-27T01:13:55.497Z,0.40
2018-11-27T01:14:55.604Z,0.30
2018-11-27T01:15:55.753Z,0.30
2018-11-27T01:16:55.505Z,0.40
2018-11-27T01:17:55.511Z,0.30
2018-11-27T01:18:55.512Z,0.40
2018-11-27T01:19:55.514Z,0.30
2018-11-27T01:20:55.570Z,0.30
2018-11-27T01:21:55.522Z,0.30
2018-11-27T01:22:55.525Z,0.30
2018-11-27T01:23:55.526Z,0.30
2018-11-27T01:24:55.533Z,0.30
2018-11-27T01:25:55.532Z,0.30
2018-11-27T01:26:55.534Z,0.40
2018-11-27T01:27:55.538Z,0.30
2018-11-27T01:28:55.543Z,0.30
2018-11-27T01:29:55.544Z,0.30
2018-11-27T01:30:55.547Z,0.30
2018-11-27T01:31:55.549Z,0.50
2018-11-27T01:32:55.552Z,0.30
2018-11-27T01:33:55.559Z,0.30
2018-11-27T01:34:55.558Z,0.30
2018-11-27T01:35:55.560Z,0.30
2018-11-27T01:36:55.565Z,0.30
2018-11-27T01:37:55.567Z,0.40
2018-11-27T01:38:55.569Z,0.30
2018-11-27T01:39:55.573Z,0.40
2018-11-27T01:40:55.576Z,0.30
2018-11-27T01:41:55.580Z,0.30
2018-11-27T01:42:55.581Z,0.40
2018-11-27T01:43:55.588Z,0.30
2018-11-27T01:44:55.838Z,0.40
2018-11-27T01:45:55.643Z,0.40
2018-11-27T01:46:55.593Z,0.30
2018-11-27T01:47:55.596Z,0.40
2018-11-27T01:48:55.600Z,0.40
2018-11-27T01:49:55.603Z,0.30
2018-11-27T01:50:55.755Z,0.30
2018-11-27T01:51:55.607Z,0.30
2018-11-27T01:52:55.761Z,0.30
2018-11-27T01:53:55.715Z,0.30
2018-11-27T01:54:55.617Z,0.30
2018-11-27T01:55:55.618Z,0.20
2018-11-27T01:56:55.623Z,0.30
2018-11-27T01:57:55.625Z,0.30
2018-11-27T01:58:55.677Z,0.30
2018-11-27T01:59:55.631Z,0.30
2018-11-27T02:00:55.635Z,0.40
2018-11-27T02:01:55.640Z,0.30
2018-11-27T02:02:55.640Z,0.20
2018-11-27T02:03:55.994Z,0.30
2018-11-27T02:04:55.646Z,0.40
2018-11-27T02:05:55.649Z,0.40
2018-11-27T02:06:55.650Z,0.30
2018-11-27T02:07:55.654Z,0.40
2018-11-27T02:08:55.657Z,0.30
2018-11-27T02:09:55.662Z,0.30
2018-11-27T02:10:55.715Z,0.20
2018-11-27T02:11:55.665Z,0.30
2018-11-27T02:13:00.999Z,0.30
2018-11-27T02:13:56.021Z,0.30
2018-11-27T02:14:55.673Z,0.40
2018-11-27T02:15:55.676Z,0.30
2018-11-27T02:16:55.830Z,0.40
2018-11-27T02:17:55.783Z,0.30
2018-11-27T02:18:55.688Z,0.40
2018-11-27T02:19:55.688Z,0.30
2018-11-27T02:20:55.692Z,0.30
2018-11-27T02:21:55.715Z,0.30
2018-11-27T02:22:55.701Z,0.30
2018-11-27T02:23:56.201Z,0.30
2018-11-27T02:24:55.703Z,0.30
2018-11-27T02:25:55.706Z,0.40
2018-11-27T02:26:55.711Z,0.30
2018-11-27T02:27:55.712Z,0.30
2018-11-27T02:28:55.715Z,0.40
2018-11-27T02:29:55.718Z,0.40
2018-11-27T02:30:55.723Z,0.30
2018-11-27T02:31:55.723Z,0.40
2018-11-27T02:32:55.727Z,0.30
2018-11-27T02:33:55.729Z,0.30
2018-11-27T02:34:55.744Z,0.30
2018-11-27T02:35:55.741Z,0.30
2018-11-27T02:36:55.739Z,0.30
2018-11-27T02:37:55.744Z,0.30
2018-11-27T02:38:55.744Z,0.30
2018-11-27T02:39:55.746Z,0.30
2018-11-27T02:40:55.899Z,0.40
2018-11-27T02:41:55.854Z,0.20
2018-11-27T02:42:55.754Z,0.30
2018-11-27T02:43:55.759Z,0.30
2018-11-27T02:44:55.761Z,0.30
2018-11-27T02:45:55.769Z,0.40
2018-11-27T02:46:55.766Z,0.40
2018-11-27T02:47:55.772Z,0.40
2018-11-27T02:48:55.774Z,0.30
2018-11-27T02:49:55.778Z,0.20
2018-11-27T02:50:55.778Z,0.40
2018-11-27T02:51:55.789Z,0.20
2018-11-27T02:52:55.989Z,0.30
2018-11-27T02:53:55.787Z,0.40
2018-11-27T02:54:55.789Z,0.30
2018-11-27T02:55:55.792Z,0.30
2018-11-27T02:56:55.795Z,0.30
2018-11-27T02:57:55.800Z,0.40
2018-11-27T02:58:55.807Z,0.40
2018-11-27T02:59:55.909Z,0.40
2018-11-27T03:00:55.859Z,0.30
2018-11-27T03:01:55.819Z,0.30
2018-11-27T03:02:55.813Z,0.30
2018-11-27T03:03:55.815Z,0.30
2018-11-27T03:04:55.970Z,0.20
2018-11-27T03:05:55.824Z,0.40
2018-11-27T03:06:55.824Z,0.30
2018-11-27T03:07:55.827Z,0.30
2018-11-27T03:08:55.830Z,0.30
2018-11-27T03:09:55.833Z,0.40
2018-11-27T03:10:55.834Z,0.30
2018-11-27T03:11:55.840Z,0.30
2018-11-27T03:12:55.841Z,0.30
2018-11-27T03:13:55.905Z,0.30
2018-11-27T03:14:55.847Z,0.20
2018-11-27T03:15:55.850Z,0.30
2018-11-27T03:16:55.852Z,0.20
2018-11-27T03:17:55.871Z,0.40
2018-11-27T03:18:55.858Z,0.30
2018-11-27T03:19:55.860Z,0.30
2018-11-27T03:20:55.864Z,0.30
2018-11-27T03:21:55.871Z,0.30
2018-11-27T03:22:55.872Z,0.40
2018-11-27T03:23:55.872Z,0.30
2018-11-27T03:24:55.875Z,0.30
2018-11-27T03:25:55.878Z,0.30
2018-11-27T03:26:55.880Z,0.30
2018-11-27T03:27:55.883Z,0.30
2018-11-27T03:28:55.887Z,0.30
2018-11-27T03:29:55.891Z,0.40
2018-11-27T03:30:55.892Z,0.30
2018-11-27T03:31:55.952Z,0.30
2018-11-27T03:32:55.900Z,0.20
2018-11-27T03:33:55.904Z,0.30
2018-11-27T03:34:55.903Z,0.30
2018-11-27T03:35:55.906Z,0.30
2018-11-27T03:36:55.910Z,0.30
2018-11-27T03:37:55.913Z,0.30
2018-11-27T03:38:55.914Z,0.30
2018-11-27T03:39:55.918Z,0.30
2018-11-27T03:40:55.926Z,0.30
2018-11-27T03:41:55.979Z,0.30
2018-11-27T03:42:55.951Z,0.30
2018-11-27T03:43:56.030Z,0.30
2018-11-27T03:44:55.932Z,0.30
2018-11-27T03:45:55.937Z,0.30
2018-11-27T03:46:55.941Z,0.30
2018-11-27T03:47:55.941Z,0.30
2018-11-27T03:48:55.946Z,0.30
2018-11-27T03:49:55.948Z,0.30
2018-11-27T03:50:55.950Z,0.20
2018-11-27T03:51:55.951Z,0.30
2018-11-27T03:52:55.956Z,0.40
2018-11-27T03:53:55.960Z,0.20
2018-11-27T03:54:55.961Z,0.20
2018-11-27T03:55:56.065Z,0.30
2018-11-27T03:56:55.967Z,0.30
2018-11-27T03:57:55.970Z,0.20
2018-11-27T03:58:55.970Z,0.20
2018-11-27T03:59:55.977Z,0.20
2018-11-27T04:00:56.080Z,0.30
2018-11-27T04:01:55.980Z,0.30
2018-11-27T04:02:55.985Z,0.30
2018-11-27T04:03:55.987Z,0.30
2018-11-27T04:04:55.990Z,0.20
2018-11-27T04:05:55.993Z,0.30
2018-11-27T04:06:55.998Z,0.30
2018-11-27T04:07:56.001Z,0.20
2018-11-27T04:08:56.002Z,0.30
2018-11-27T04:09:56.005Z,0.20
2018-11-27T04:10:56.007Z,0.30
2018-11-27T04:11:56.014Z,0.20
2018-11-27T04:12:56.020Z,0.20
2018-11-27T04:13:56.017Z,0.30
2018-11-27T04:14:56.022Z,0.20
2018-11-27T04:15:56.022Z,0.30
2018-11-27T04:16:56.036Z,0.30
2018-11-27T04:17:56.042Z,0.20
2018-11-27T04:18:56.038Z,0.20
2018-11-27T04:19:56.035Z,0.30
2018-11-27T04:20:56.037Z,0.10
2018-11-27T04:21:56.042Z,0.40
2018-11-27T04:22:56.042Z,0.30
2018-11-27T04:23:56.045Z,0.30
2018-11-27T04:24:56.046Z,0.30
2018-11-27T04:25:56.051Z,0.30
2018-11-27T04:26:56.054Z,0.20
2018-11-27T04:27:56.056Z,0.30
2018-11-27T04:28:56.060Z,0.20
2018-11-27T04:29:56.062Z,0.20
2018-11-27T04:30:56.064Z,0.30
2018-11-27T04:31:56.167Z,0.30
2018-11-27T04:32:56.070Z,0.20
2018-11-27T04:33:56.075Z,0.30
2018-11-27T04:34:56.076Z,0.20
2018-11-27T04:35:56.086Z,0.20
2018-11-27T04:36:56.083Z,0.30
2018-11-27T04:37:56.093Z,0.20
2018-11-27T04:38:56.087Z,0.20
2018-11-27T04:39:56.092Z,0.20
2018-11-27T04:40:56.093Z,0.20
2018-11-27T04:41:56.096Z,0.20
2018-11-27T04:42:56.099Z,0.30
2018-11-27T04:43:56.154Z,0.20
2018-11-27T04:44:56.114Z,0.20
2018-11-27T04:45:56.113Z,0.20
2018-11-27T04:46:56.125Z,0.20
2018-11-27T04:47:56.124Z,0.20
2018-11-27T04:48:56.117Z,0.20
2018-11-27T04:49:56.143Z,0.20
2018-11-27T04:50:56.122Z,0.30
2018-11-27T04:51:56.123Z,0.20
2018-11-27T04:52:56.139Z,0.20
2018-11-27T04:53:56.131Z,0.30
2018-11-27T04:54:56.133Z,0.20
2018-11-27T04:55:56.137Z,0.20
2018-11-27T04:56:56.189Z,0.20
2018-11-27T04:57:56.142Z,0.20
2018-11-27T04:58:56.145Z,0.20
2018-11-27T04:59:56.147Z,0.20
2018-11-27T05:00:56.350Z,0.20
2018-11-27T05:01:56.151Z,0.20
2018-11-27T05:02:56.155Z,0.20
2018-11-27T05:03:56.166Z,0.20
2018-11-27T05:04:56.372Z,0.20
2018-11-27T05:05:56.165Z,0.20
2018-11-27T05:06:56.167Z,0.20
2018-11-27T05:07:56.195Z,0.30
2018-11-27T05:08:56.173Z,0.20
2018-11-27T05:09:56.381Z,0.20
2018-11-27T05:10:56.331Z,0.20
2018-11-27T05:11:56.231Z,0.20
2018-11-27T05:12:56.184Z,0.20
2018-11-27T05:13:56.189Z,0.20
2018-11-27T05:14:56.439Z,0.20
2018-11-27T05:15:56.192Z,0.20
2018-11-27T05:16:56.195Z,0.10
2018-11-27T05:17:56.199Z,0.20
2018-11-27T05:18:56.302Z,0.20
2018-11-27T05:19:56.204Z,0.30
2018-11-27T05:20:56.357Z,0.20
2018-11-27T05:21:56.209Z,0.20
2018-11-27T05:22:56.414Z,0.20
2018-11-27T05:23:56.217Z,0.40
2018-11-27T05:24:56.218Z,0.30
2018-11-27T05:25:56.224Z,0.40
2018-11-27T05:26:56.228Z,0.40
2018-11-27T05:27:56.326Z,0.30
2018-11-27T05:28:56.382Z,0.30
2018-11-27T05:29:56.233Z,0.30
2018-11-27T05:30:56.235Z,0.30
2018-11-27T05:31:56.245Z,0.30
2018-11-27T05:32:56.242Z,0.40
2018-11-27T05:33:56.243Z,0.40
2018-11-27T05:34:56.246Z,0.40
2018-11-27T05:35:56.249Z,0.30
2018-11-27T05:36:56.253Z,0.30
2018-11-27T05:37:56.405Z,0.40
2018-11-27T05:38:56.458Z,0.40
2018-11-27T05:39:56.260Z,0.30
2018-11-27T05:40:56.266Z,0.40
2018-11-27T05:41:56.267Z,0.40
2018-11-27T05:42:56.272Z,0.30
2018-11-27T05:43:56.273Z,0.30
2018-11-27T05:44:56.275Z,0.20
2018-11-27T05:45:56.279Z,0.30
2018-11-27T05:46:56.429Z,0.30
2018-11-27T05:47:56.283Z,0.40
2018-11-27T05:48:56.344Z,0.30
2018-11-27T05:49:56.341Z,0.30
2018-11-27T05:50:56.342Z,0.20
2018-11-27T05:51:56.298Z,0.20
2018-11-27T05:52:56.298Z,0.30
2018-11-27T05:53:56.302Z,0.40
2018-11-27T05:54:56.303Z,0.30
2018-11-27T05:55:56.307Z,0.30
2018-11-27T05:56:56.310Z,0.30
2018-11-27T05:57:56.320Z,0.30
2018-11-27T05:58:56.316Z,0.40
2018-11-27T05:59:56.320Z,0.30
2018-11-27T06:00:56.422Z,0.30
2018-11-27T06:01:56.326Z,0.30
2018-11-27T06:02:57.475Z,0.30
2018-11-27T06:03:56.338Z,0.30
2018-11-27T06:04:56.535Z,0.40
2018-11-27T06:05:56.387Z,0.40
2018-11-27T06:06:56.400Z,0.40
2018-11-27T06:07:56.344Z,0.30
2018-11-27T06:08:56.999Z,0.30
2018-11-27T06:09:56.349Z,0.30
2018-11-27T06:10:56.353Z,0.20
2018-11-27T06:11:56.358Z,0.20
2018-11-27T06:12:56.358Z,0.40
2018-11-27T06:13:56.362Z,0.30
2018-11-27T06:14:56.369Z,0.40
2018-11-27T06:15:56.367Z,0.30
2018-11-27T06:16:56.374Z,0.30
2018-11-27T06:17:56.374Z,0.30
2018-11-27T06:18:56.376Z,0.30
2018-11-27T06:19:56.381Z,0.30
2018-11-27T06:20:56.384Z,0.30
2018-11-27T06:21:56.386Z,0.30
2018-11-27T06:22:56.388Z,0.20
2018-11-27T06:23:56.543Z,0.40
2018-11-27T06:24:56.595Z,0.30
2018-11-27T06:25:56.398Z,0.30
2018-11-27T06:26:56.409Z,0.20
2018-11-27T06:27:56.404Z,0.30
2018-11-27T06:28:57.058Z,0.30
2018-11-27T06:29:56.416Z,0.30
2018-11-27T06:30:56.417Z,0.40
2018-11-27T06:31:56.422Z,0.30
2018-11-27T06:32:56.419Z,0.30
2018-11-27T06:33:56.523Z,0.30
2018-11-27T06:34:56.425Z,0.30
2018-11-27T06:35:56.428Z,0.20
2018-11-27T06:36:56.432Z,0.30
2018-11-27T06:37:56.633Z,0.30
2018-11-27T06:38:56.590Z,0.30
2018-11-27T06:39:56.441Z,0.20
2018-11-27T06:40:56.445Z,0.30
2018-11-27T06:41:56.448Z,0.20
2018-11-27T06:42:56.451Z,0.20
2018-11-27T06:43:56.453Z,0.20
2018-11-27T06:44:56.458Z,0.30
2018-11-27T06:45:56.460Z,0.20
2018-11-27T06:46:56.512Z,0.20
2018-11-27T06:47:56.615Z,0.20
2018-11-27T06:48:56.519Z,0.20
2018-11-27T06:49:56.622Z,0.30
2018-11-27T06:50:56.477Z,0.30
2018-11-27T06:51:56.527Z,0.30
2018-11-27T06:52:56.492Z,0.30
2018-11-27T06:53:56.495Z,0.30
2018-11-27T06:54:56.498Z,0.30
2018-11-27T06:55:56.507Z,0.30
2018-11-27T06:56:56.545Z,0.20
2018-11-27T06:57:56.597Z,0.30
2018-11-27T06:58:57.501Z,0.20
2018-11-27T06:59:56.505Z,0.20
2018-11-27T07:00:57.057Z,0.20
2018-11-27T07:01:56.858Z,0.30
2018-11-27T07:02:57.212Z,0.30
2018-11-27T07:03:57.469Z,0.30
2018-11-27T07:04:56.519Z,0.30
2018-11-27T07:05:56.723Z,0.30
2018-11-27T07:06:56.575Z,0.30
2018-11-27T07:07:56.527Z,0.30
2018-11-27T07:08:56.529Z,0.30
2018-11-27T07:09:56.534Z,0.30
2018-11-27T07:10:56.638Z,0.30
2018-11-27T07:11:57.892Z,0.30
2018-11-27T07:12:57.698Z,0.30
2018-11-27T07:13:57.348Z,0.30
2018-11-27T07:14:56.699Z,0.30
2018-11-27T07:15:56.555Z,0.20
2018-11-27T07:16:56.760Z,0.30
2018-11-27T07:17:56.566Z,0.30
2018-11-27T07:18:56.761Z,0.20
2018-11-27T07:19:56.574Z,0.30
2018-11-27T07:20:56.819Z,0.40
2018-11-27T07:21:56.622Z,0.30
2018-11-27T07:22:56.575Z,0.30
2018-11-27T07:23:56.777Z,0.30
2018-11-27T07:24:56.582Z,0.30
2018-11-27T07:25:56.584Z,0.30
2018-11-27T07:26:56.587Z,0.30
2018-11-27T07:27:56.591Z,0.30
2018-11-27T07:28:56.593Z,0.30
2018-11-27T07:29:56.598Z,0.30
2018-11-27T07:30:57.051Z,0.30
2018-11-27T07:31:56.904Z,0.40
2018-11-27T07:32:57.558Z,0.30
2018-11-27T07:33:57.010Z,0.30
2018-11-27T07:34:56.663Z,0.40
2018-11-27T07:35:56.715Z,0.50
2018-11-27T07:36:56.920Z,0.40
2018-11-27T07:37:56.823Z,0.20
2018-11-27T07:38:57.126Z,0.30
2018-11-27T07:39:56.779Z,0.30
2018-11-27T07:40:56.792Z,0.30
2018-11-27T07:41:56.885Z,0.30
2018-11-27T07:42:56.800Z,0.40
2018-11-27T07:43:56.695Z,0.30
2018-11-27T07:44:56.844Z,0.30
2018-11-27T07:45:57.401Z,0.40
2018-11-27T07:46:58.002Z,0.30
2018-11-27T07:47:57.057Z,0.30
2018-11-27T07:48:58.232Z,0.30
2018-11-27T07:49:57.712Z,0.30
2018-11-27T07:50:57.163Z,0.30
2018-11-27T07:51:57.730Z,0.40
2018-11-27T07:52:57.831Z,0.30
2018-11-27T07:53:57.825Z,0.30
2018-11-27T07:54:57.579Z,0.30
2018-11-27T07:55:57.930Z,0.30
2018-11-27T07:56:57.134Z,0.30
2018-11-27T07:57:57.489Z,0.30
2018-11-27T07:58:58.393Z,0.50
2018-11-27T07:59:57.293Z,0.40
2018-11-27T08:00:57.247Z,0.30
2018-11-27T08:01:57.402Z,0.30
2018-11-27T08:02:57.610Z,0.30
2018-11-27T08:03:57.606Z,0.30
2018-11-27T08:04:57.659Z,0.40
2018-11-27T08:05:57.263Z,0.40
2018-11-27T08:06:57.415Z,0.30
2018-11-27T08:07:57.619Z,0.40
2018-11-27T08:08:57.873Z,0.50
2018-11-27T08:09:57.876Z,0.40
2018-11-27T08:10:57.132Z,0.50
2018-11-27T08:11:57.882Z,0.30
2018-11-27T08:12:57.234Z,0.40
2018-11-27T08:13:58.339Z,0.30
2018-11-27T08:14:57.691Z,0.40
2018-11-27T08:15:57.294Z,0.40
2018-11-27T08:16:57.497Z,0.40
2018-11-27T08:17:57.954Z,0.30
2018-11-27T08:18:57.354Z,0.40
2018-11-27T08:19:57.407Z,0.40
2018-11-27T08:20:57.310Z,0.30
2018-11-27T08:21:57.614Z,0.30
2018-11-27T08:22:57.724Z,0.40
2018-11-27T08:23:58.572Z,0.30
2018-11-27T08:24:57.027Z,0.40
2018-11-27T08:25:57.727Z,0.30
2018-11-27T08:26:56.881Z,0.30
2018-11-27T08:27:57.688Z,0.40
2018-11-27T08:28:56.889Z,0.30
2018-11-27T08:29:57.841Z,0.40
2018-11-27T08:30:57.491Z,0.30
2018-11-27T08:31:56.997Z,0.30
2018-11-27T08:32:57.153Z,0.40
2018-11-27T08:33:57.554Z,0.50
2018-11-27T08:34:58.162Z,0.40
2018-11-27T08:35:57.613Z,0.30
2018-11-27T08:36:57.415Z,0.30
2018-11-27T08:37:57.466Z,0.40
2018-11-27T08:38:57.470Z,0.30
2018-11-27T08:39:56.922Z,0.30
2018-11-27T08:40:56.875Z,0.40
2018-11-27T08:41:57.131Z,0.30
2018-11-27T08:42:58.234Z,0.40
2018-11-27T08:43:57.436Z,0.50
2018-11-27T08:44:57.088Z,0.90
2018-11-27T08:45:57.890Z,0.40
2018-11-27T08:46:57.444Z,0.40
2018-11-27T08:47:56.947Z,0.40
2018-11-27T08:48:57.102Z,0.30
2018-11-27T08:49:57.154Z,0.40
2018-11-27T08:50:57.509Z,0.40
2018-11-27T08:51:57.433Z,0.40
2018-11-27T08:52:57.064Z,0.40
2018-11-27T08:53:56.867Z,0.40
2018-11-27T08:54:57.119Z,0.60
2018-11-27T08:55:57.572Z,0.40
2018-11-27T08:56:57.026Z,0.50
2018-11-27T08:57:56.940Z,0.50
2018-11-27T08:58:57.433Z,0.40
2018-11-27T08:59:57.184Z,0.30
2018-11-27T09:00:58.543Z,0.50
2018-11-27T09:01:57.644Z,0.40
2018-11-27T09:02:57.547Z,0.40
2018-11-27T09:03:56.899Z,0.50
2018-11-27T09:04:56.901Z,0.50
2018-11-27T09:05:56.907Z,0.50
2018-11-27T09:06:57.008Z,0.40
2018-11-27T09:07:56.911Z,0.40
2018-11-27T09:08:56.916Z,0.40
2018-11-27T09:09:56.920Z,0.40
2018-11-27T09:10:56.921Z,0.40
2018-11-27T09:11:56.923Z,0.40
2018-11-27T09:12:57.094Z,0.40
2018-11-27T09:13:56.934Z,0.40
2018-11-27T09:14:56.934Z,0.40
2018-11-27T09:15:56.938Z,0.30
2018-11-27T09:16:56.942Z,0.40
2018-11-27T09:17:56.945Z,0.50
2018-11-27T09:18:56.948Z,0.40
2018-11-27T09:19:56.950Z,0.40
2018-11-27T09:20:56.954Z,0.30
2018-11-27T09:21:56.958Z,0.40
2018-11-27T09:22:56.973Z,0.40
2018-11-27T09:23:56.963Z,0.30
2018-11-27T09:24:56.968Z,0.30
2018-11-27T09:25:56.971Z,0.40
2018-11-27T09:26:56.975Z,0.40
2018-11-27T09:27:56.975Z,0.40
2018-11-27T09:28:56.990Z,0.30
2018-11-27T09:29:57.005Z,0.50
2018-11-27T09:30:56.991Z,0.40
2018-11-27T09:31:56.990Z,0.30
2018-11-27T09:32:56.995Z,0.40
2018-11-27T09:33:56.996Z,0.50
2018-11-27T09:34:57.008Z,0.40
2018-11-27T09:35:57.006Z,0.30
2018-11-27T09:36:57.009Z,0.40
2018-11-27T09:37:57.011Z,0.50
2018-11-27T09:38:57.012Z,0.30
2018-11-27T09:39:57.015Z,0.50
2018-11-27T09:40:57.019Z,0.40
2018-11-27T09:41:57.023Z,0.30
2018-11-27T09:42:57.026Z,0.40
2018-11-27T09:43:57.029Z,0.50
2018-11-27T09:44:57.033Z,0.40
2018-11-27T09:45:57.036Z,0.40
2018-11-27T09:46:57.038Z,0.50
2018-11-27T09:47:57.042Z,0.40
2018-11-27T09:48:57.048Z,0.40
2018-11-27T09:49:57.052Z,0.50
2018-11-27T09:50:57.053Z,0.40
2018-11-27T09:51:57.056Z,0.50
2018-11-27T09:52:57.060Z,0.50
2018-11-27T09:53:57.061Z,0.40
2018-11-27T09:54:57.065Z,0.40
2018-11-27T09:55:57.070Z,0.40
2018-11-27T09:56:57.106Z,0.50
2018-11-27T09:57:59.274Z,0.40
2018-11-27T09:58:57.077Z,0.40
2018-11-27T09:59:57.082Z,0.30
2018-11-27T10:00:57.083Z,0.40
2018-11-27T10:01:57.087Z,0.30
2018-11-27T10:02:57.093Z,0.40
2018-11-27T10:03:57.095Z,0.30
2018-11-27T10:04:57.097Z,0.30
2018-11-27T10:05:57.099Z,0.40
2018-11-27T10:06:57.103Z,0.40
2018-11-27T10:07:57.107Z,0.30
2018-11-27T10:08:57.112Z,0.30
2018-11-27T10:09:57.114Z,0.40
2018-11-27T10:10:57.117Z,0.40
2018-11-27T10:11:57.117Z,0.40
2018-11-27T10:12:57.129Z,0.40
2018-11-27T10:13:57.128Z,0.40
2018-11-27T10:14:57.128Z,0.40
2018-11-27T10:15:57.132Z,0.40
2018-11-27T10:16:57.137Z,0.50
2018-11-27T10:17:57.144Z,0.50
2018-11-27T10:18:57.142Z,0.50
2018-11-27T10:19:57.169Z,0.40
2018-11-27T10:20:57.148Z,0.50
2018-11-27T10:21:57.150Z,0.50
2018-11-27T10:22:57.156Z,0.60
2018-11-27T10:23:57.161Z,0.50
2018-11-27T10:24:57.161Z,0.50
2018-11-27T10:25:57.165Z,0.40
2018-11-27T10:26:57.167Z,0.50
2018-11-27T10:27:57.174Z,0.60
2018-11-27T10:28:57.174Z,0.50
2018-11-27T10:29:57.176Z,0.40
2018-11-27T10:30:57.179Z,0.40
2018-11-27T10:31:57.187Z,0.40
2018-11-27T10:32:57.189Z,0.50
2018-11-27T10:33:57.191Z,0.50
2018-11-27T10:34:57.192Z,0.50
2018-11-27T10:35:57.197Z,0.40
2018-11-27T10:36:57.202Z,0.40
2018-11-27T10:37:57.204Z,0.40
2018-11-27T10:39:00.995Z,0.50
2018-11-27T10:39:57.211Z,0.50
2018-11-27T10:40:57.211Z,0.50
2018-11-27T10:41:57.218Z,0.50
2018-11-27T10:42:57.219Z,0.40
2018-11-27T10:43:57.222Z,0.50
2018-11-27T10:44:57.225Z,0.40
2018-11-27T10:45:57.231Z,0.50
2018-11-27T10:46:57.231Z,0.50
2018-11-27T10:47:57.235Z,0.40
2018-11-27T10:48:57.238Z,0.50
2018-11-27T10:49:57.242Z,0.50
2018-11-27T10:50:57.244Z,0.40
2018-11-27T10:51:57.246Z,0.60
2018-11-27T10:52:57.250Z,0.40
2018-11-27T10:53:57.256Z,0.50
2018-11-27T10:54:57.255Z,0.50
2018-11-27T10:55:57.260Z,0.40
2018-11-27T10:56:57.268Z,0.50
2018-11-27T10:57:57.269Z,0.30
2018-11-27T10:58:57.269Z,0.30
2018-11-27T10:59:57.273Z,0.50
2018-11-27T11:00:57.285Z,0.40
2018-11-27T11:01:57.283Z,0.30
2018-11-27T11:02:57.286Z,0.50
2018-11-27T11:03:57.285Z,0.40
2018-11-27T11:04:57.293Z,0.50
2018-11-27T11:05:57.295Z,0.50
2018-11-27T11:06:57.293Z,0.50
2018-11-27T11:07:57.298Z,0.40
2018-11-27T11:08:57.301Z,0.40
2018-11-27T11:09:57.304Z,0.40
2018-11-27T11:10:57.309Z,0.50
2018-11-27T11:11:59.405Z,0.50
2018-11-27T11:12:57.311Z,0.40
2018-11-27T11:13:57.316Z,0.40
2018-11-27T11:14:57.319Z,0.50
2018-11-27T11:15:57.322Z,0.40
2018-11-27T11:16:57.327Z,0.50
2018-11-27T11:17:57.331Z,0.50
2018-11-27T11:18:57.329Z,0.50
2018-11-27T11:19:57.337Z,0.40
2018-11-27T11:20:57.342Z,0.40
2018-11-27T11:21:57.340Z,0.40
2018-11-27T11:22:57.344Z,0.50
2018-11-27T11:23:57.353Z,0.40
2018-11-27T11:24:57.350Z,0.50
2018-11-27T11:25:57.354Z,0.40
2018-11-27T11:26:57.356Z,0.50
2018-11-27T11:27:57.362Z,0.40
2018-11-27T11:28:57.362Z,0.40
2018-11-27T11:29:57.366Z,0.40
2018-11-27T11:30:57.384Z,0.50
2018-11-27T11:31:57.371Z,0.40
2018-11-27T11:32:57.375Z,0.50
2018-11-27T11:33:57.379Z,0.60
2018-11-27T11:34:57.380Z,0.40
2018-11-27T11:35:57.384Z,0.50
2018-11-27T11:36:57.386Z,0.60
2018-11-27T11:37:57.393Z,0.40
2018-11-27T11:38:57.393Z,0.50
2018-11-27T11:39:57.396Z,0.50
2018-11-27T11:40:57.399Z,0.50
2018-11-27T11:41:57.404Z,0.60
2018-11-27T11:42:57.423Z,0.60
2018-11-27T11:43:57.406Z,0.60
2018-11-27T11:44:57.413Z,0.50
2018-11-27T11:45:57.414Z,0.60
2018-11-27T11:46:57.417Z,0.50
2018-11-27T11:47:57.419Z,0.50
2018-11-27T11:49:01.901Z,0.50
2018-11-27T11:49:57.426Z,0.40
2018-11-27T11:50:57.431Z,0.50
2018-11-27T11:51:57.435Z,0.50
2018-11-27T11:52:57.435Z,0.70
2018-11-27T11:53:57.445Z,0.50
2018-11-27T11:54:57.441Z,0.40
2018-11-27T11:55:57.444Z,0.40
2018-11-27T11:56:57.447Z,0.50
2018-11-27T11:57:57.451Z,0.50
2018-11-27T11:58:57.455Z,0.50
2018-11-27T11:59:57.456Z,0.50
2018-11-27T12:00:57.459Z,0.50
2018-11-27T12:01:57.463Z,0.50
2018-11-27T12:02:57.466Z,0.60
2018-11-27T12:03:57.473Z,0.70
2018-11-27T12:04:57.472Z,0.50
2018-11-27T12:05:57.476Z,0.70
2018-11-27T12:06:57.480Z,0.40
2018-11-27T12:07:57.481Z,0.50
2018-11-27T12:08:57.486Z,0.50
2018-11-27T12:09:57.487Z,0.40
2018-11-27T12:10:57.490Z,0.50
2018-11-27T12:11:57.495Z,0.50
2018-11-27T12:12:57.498Z,0.50
2018-11-27T12:13:57.523Z,0.50
2018-11-27T12:14:57.503Z,0.50
2018-11-27T12:15:57.505Z,0.40
2018-11-27T12:16:57.509Z,0.40
2018-11-27T12:17:57.517Z,0.50
2018-11-27T12:18:57.516Z,0.40
2018-11-27T12:19:57.518Z,0.40
2018-11-27T12:20:57.522Z,0.50
2018-11-27T12:21:57.530Z,0.50
2018-11-27T12:22:57.531Z,0.50
2018-11-27T12:23:57.533Z,0.30
2018-11-27T12:24:57.536Z,0.40
2018-11-27T12:25:57.539Z,0.40
2018-11-27T12:26:57.542Z,0.50
2018-11-27T12:27:57.544Z,0.40
2018-11-27T12:28:57.547Z,0.50
2018-11-27T12:29:57.552Z,0.30
2018-11-27T12:30:57.552Z,0.40
2018-11-27T12:31:57.558Z,0.40
2018-11-27T12:32:57.559Z,0.50
2018-11-27T12:33:57.561Z,0.50
2018-11-27T12:34:57.565Z,0.50
2018-11-27T12:35:57.568Z,0.50
2018-11-27T12:36:57.572Z,0.40
2018-11-27T12:37:57.576Z,0.50
2018-11-27T12:38:57.577Z,0.40
2018-11-27T12:39:57.581Z,0.50
2018-11-27T12:40:57.584Z,0.50
2018-11-27T12:41:57.588Z,0.50
2018-11-27T12:42:57.590Z,0.50
2018-11-27T12:43:57.599Z,0.50
2018-11-27T12:44:57.610Z,0.40
2018-11-27T12:45:57.609Z,0.40
2018-11-27T12:46:57.607Z,0.30
2018-11-27T12:47:57.610Z,0.50
2018-11-27T12:48:57.609Z,0.40
2018-11-27T12:49:57.623Z,0.40
2018-11-27T12:50:57.616Z,0.40
2018-11-27T12:51:57.620Z,0.50
2018-11-27T12:52:57.623Z,0.40
2018-11-27T12:53:57.627Z,0.30
2018-11-27T12:54:57.629Z,0.40
2018-11-27T12:55:57.630Z,0.40
2018-11-27T12:56:57.636Z,0.50
2018-11-27T12:57:57.636Z,0.40
2018-11-27T12:58:57.676Z,0.40
2018-11-27T12:59:57.644Z,0.40
2018-11-27T13:00:57.646Z,0.50
2018-11-27T13:01:57.654Z,0.40
2018-11-27T13:02:57.654Z,0.40
2018-11-27T13:03:57.660Z,0.40
2018-11-27T13:04:57.660Z,0.40
2018-11-27T13:05:57.663Z,0.40
2018-11-27T13:06:57.669Z,0.40
2018-11-27T13:07:57.672Z,0.40
2018-11-27T13:08:57.673Z,0.40
2018-11-27T13:09:57.684Z,0.40
2018-11-27T13:10:57.695Z,0.40
2018-11-27T13:11:57.684Z,0.40
2018-11-27T13:12:57.688Z,0.30
2018-11-27T13:13:57.690Z,0.40
2018-11-27T13:14:57.691Z,0.40
2018-11-27T13:15:57.696Z,0.40
2018-11-27T13:16:57.699Z,0.40
2018-11-27T13:17:57.703Z,0.40
2018-11-27T13:18:57.706Z,0.40